createdAt,value
2023-05-19T00:01:00.695Z,99.20
2023-05-19T00:03:40.843Z,99.80
2023-05-19T00:06:09.304Z,99.90
2023-05-19T00:08:40.038Z,99.90
2023-05-19T00:11:08.175Z,99.90
2023-05-19T00:13:36.034Z,99.90
2023-05-19T00:16:04.105Z,99.90
2023-05-19T00:18:34.748Z,99.90
2023-05-19T00:21:04.475Z,99.90
2023-05-19T00:23:32.053Z,99.90
2023-05-19T00:25:59.506Z,99.90
2023-05-19T00:28:27.016Z,99.90
2023-05-19T00:30:54.850Z,99.90
2023-05-19T00:33:22.779Z,99.90
2023-05-19T00:35:50.253Z,99.90
2023-05-19T00:38:17.683Z,99.90
2023-05-19T00:40:45.713Z,99.90
2023-05-19T00:43:13.368Z,99.90
2023-05-19T00:45:41.400Z,99.90
2023-05-19T00:48:09.445Z,99.90
2023-05-19T00:50:37.188Z,99.90
2023-05-19T00:53:04.865Z,99.90
2023-05-19T00:55:33.886Z,99.90
2023-05-19T00:58:01.913Z,99.90
2023-05-19T01:00:31.031Z,99.90
2023-05-19T01:02:59.149Z,99.90
2023-05-19T01:05:27.257Z,99.90
2023-05-19T01:07:56.564Z,99.90
2023-05-19T01:10:24.151Z,99.90
2023-05-19T01:12:51.567Z,99.90
2023-05-19T01:15:19.972Z,99.90
2023-05-19T01:18:12.025Z,99.90
2023-05-19T01:20:46.489Z,99.90
2023-05-19T01:23:36.854Z,99.90
2023-05-19T01:26:32.539Z,99.90
2023-05-19T01:29:28.606Z,99.90
2023-05-19T01:32:00.351Z,99.90
2023-05-19T01:34:35.305Z,99.90
2023-05-19T01:37:05.496Z,99.90
2023-05-19T01:39:34.587Z,99.90
2023-05-19T01:42:04.222Z,99.90
2023-05-19T01:44:33.702Z,99.90
2023-05-19T01:47:02.460Z,99.90
2023-05-19T01:49:32.664Z,99.90
2023-05-19T01:52:00.625Z,99.90
2023-05-19T01:54:28.441Z,99.90
2023-05-19T01:57:16.001Z,99.90
2023-05-19T02:00:05.856Z,99.90
2023-05-19T02:03:13.944Z,99.90
2023-05-19T02:05:59.645Z,99.90
2023-05-19T02:09:04.399Z,99.90
2023-05-19T02:11:44.309Z,99.90
2023-05-19T02:14:19.995Z,99.90
2023-05-19T02:16:49.165Z,99.90
2023-05-19T02:19:26.038Z,99.90
2023-05-19T02:21:56.592Z,99.90
2023-05-19T02:24:24.420Z,99.90
2023-05-19T02:26:53.814Z,99.90
2023-05-19T02:29:21.571Z,99.90
2023-05-19T02:31:51.569Z,99.90
2023-05-19T02:34:20.180Z,99.90
2023-05-19T02:36:50.083Z,99.90
2023-05-19T02:39:18.098Z,99.90
2023-05-19T02:41:45.630Z,99.90
2023-05-19T02:44:15.722Z,99.90
2023-05-19T02:46:43.467Z,99.90
2023-05-19T02:49:11.709Z,99.90
2023-05-19T02:51:40.022Z,99.90
2023-05-19T02:54:10.220Z,99.90
2023-05-19T02:56:37.822Z,99.90
2023-05-19T02:59:06.263Z,99.90
2023-05-19T03:01:33.945Z,99.90
2023-05-19T03:04:01.746Z,99.90
2023-05-19T03:06:29.564Z,99.90
2023-05-19T03:08:57.097Z,99.90
2023-05-19T03:11:24.634Z,99.90
2023-05-19T03:13:52.397Z,99.90
2023-05-19T03:16:20.305Z,99.90
2023-05-19T03:18:48.032Z,99.90
2023-05-19T03:21:15.748Z,99.90
2023-05-19T03:23:43.258Z,99.90
2023-05-19T03:26:11.118Z,99.90
2023-05-19T03:28:38.672Z,99.90
2023-05-19T03:31:06.245Z,99.90
2023-05-19T03:33:38.870Z,99.90
2023-05-19T03:36:07.359Z,99.90
2023-05-19T03:38:39.340Z,99.90
2023-05-19T03:41:09.835Z,99.90
2023-05-19T03:43:37.675Z,99.90
2023-05-19T03:46:07.715Z,99.90
2023-05-19T03:49:01.440Z,99.90
2023-05-19T03:51:49.310Z,99.90
2023-05-19T03:54:42.921Z,99.90
2023-05-19T03:57:11.454Z,99.90
2023-05-19T03:59:41.463Z,99.90
2023-05-19T04:02:09.149Z,99.90
2023-05-19T04:04:38.180Z,99.90
2023-05-19T04:07:05.891Z,99.90
2023-05-19T04:09:35.368Z,99.90
2023-05-19T04:12:03.164Z,99.90
2023-05-19T04:14:34.930Z,99.90
2023-05-19T04:17:04.178Z,99.90
2023-05-19T04:19:31.800Z,99.90
2023-05-19T04:21:59.378Z,99.90
2023-05-19T04:24:29.514Z,99.90
2023-05-19T04:26:57.154Z,99.90
2023-05-19T04:29:24.722Z,99.90
2023-05-19T04:31:53.056Z,99.90
2023-05-19T04:34:20.904Z,99.90
2023-05-19T04:36:50.992Z,99.90
2023-05-19T04:39:21.722Z,99.90
2023-05-19T04:41:49.750Z,99.90
2023-05-19T04:44:20.592Z,99.90
2023-05-19T04:46:54.653Z,99.90
2023-05-19T04:49:24.528Z,99.90
2023-05-19T04:51:55.497Z,99.90
2023-05-19T04:54:28.690Z,99.90
2023-05-19T04:56:59.086Z,99.90
2023-05-19T04:59:29.166Z,99.90
2023-05-19T05:01:57.013Z,99.90
2023-05-19T05:04:27.228Z,99.90
2023-05-19T05:06:55.539Z,99.90
2023-05-19T05:09:24.850Z,99.90
2023-05-19T05:11:53.111Z,99.90
2023-05-19T05:14:21.060Z,99.90
2023-05-19T05:16:49.702Z,99.90
2023-05-19T05:19:23.207Z,99.90
2023-05-19T05:21:52.152Z,99.90
2023-05-19T05:24:20.618Z,99.90
2023-05-19T05:26:53.661Z,99.90
2023-05-19T05:29:21.859Z,99.90
2023-05-19T05:31:50.022Z,99.90
2023-05-19T05:34:18.118Z,99.90
2023-05-19T05:36:45.766Z,99.90
2023-05-19T05:39:13.999Z,99.90
2023-05-19T05:41:43.144Z,99.90
2023-05-19T05:44:12.559Z,99.90
2023-05-19T05:46:43.088Z,99.90
2023-05-19T05:49:12.643Z,99.90
2023-05-19T05:51:54.285Z,99.90
2023-05-19T05:54:32.748Z,99.60
2023-05-19T05:57:00.766Z,99.90
2023-05-19T05:59:28.304Z,99.90
2023-05-19T06:01:55.981Z,99.90
2023-05-19T06:04:25.890Z,99.90
2023-05-19T06:06:57.448Z,99.90
2023-05-19T06:09:27.075Z,99.90
2023-05-19T06:11:55.075Z,99.90
2023-05-19T06:14:23.248Z,99.90
2023-05-19T06:17:13.884Z,99.90
2023-05-19T06:19:41.840Z,99.90
2023-05-19T06:22:09.988Z,99.90
2023-05-19T06:24:39.438Z,99.90
2023-05-19T06:27:09.545Z,99.90
2023-05-19T06:29:37.299Z,99.90
2023-05-19T06:32:07.490Z,99.90
2023-05-19T06:34:35.842Z,99.90
2023-05-19T06:37:04.134Z,99.70
2023-05-19T06:39:33.257Z,99.70
2023-05-19T06:42:00.963Z,99.90
2023-05-19T06:44:47.139Z,98.10
2023-05-19T06:47:17.433Z,98.00
2023-05-19T06:49:46.457Z,98.20
2023-05-19T06:52:14.529Z,92.40
2023-05-19T06:54:42.086Z,91.70
2023-05-19T06:57:10.907Z,93.40
2023-05-19T06:59:40.983Z,92.20
2023-05-19T07:02:09.741Z,90.90
2023-05-19T07:04:37.817Z,87.60
2023-05-19T07:07:05.509Z,86.80
2023-05-19T07:09:33.499Z,90.90
2023-05-19T07:12:01.621Z,90.70
2023-05-19T07:14:30.150Z,91.50
2023-05-19T07:16:58.204Z,89.60
2023-05-19T07:19:26.058Z,90.00
2023-05-19T07:21:55.560Z,87.50
2023-05-19T07:24:23.362Z,86.60
2023-05-19T07:26:51.382Z,76.60
2023-05-19T07:29:19.019Z,83.20
2023-05-19T07:31:46.570Z,82.20
2023-05-19T07:34:14.064Z,75.80
2023-05-19T07:36:42.336Z,73.60
2023-05-19T07:39:10.516Z,70.10
2023-05-19T07:41:38.287Z,72.70
2023-05-19T07:44:07.941Z,65.90
2023-05-19T07:46:36.518Z,65.70
2023-05-19T07:49:05.030Z,69.50
2023-05-19T07:51:32.787Z,65.70
2023-05-19T07:54:00.306Z,61.50
2023-05-19T07:56:27.856Z,60.90
2023-05-19T07:58:55.875Z,58.30
2023-05-19T08:01:23.393Z,58.20
2023-05-19T08:03:51.299Z,59.00
2023-05-19T08:06:19.054Z,59.70
2023-05-19T08:08:46.650Z,56.50
2023-05-19T08:11:20.500Z,60.10
2023-05-19T08:13:49.413Z,55.00
2023-05-19T08:16:17.079Z,56.10
2023-05-19T08:18:44.651Z,58.60
2023-05-19T08:21:12.492Z,57.20
2023-05-19T08:23:39.984Z,61.00
2023-05-19T08:26:07.548Z,60.70
2023-05-19T08:28:35.040Z,60.70
2023-05-19T08:31:02.610Z,63.60
2023-05-19T08:33:30.572Z,66.70
2023-05-19T08:35:58.315Z,70.50
2023-05-19T08:38:26.748Z,70.40
2023-05-19T08:40:54.377Z,73.10
2023-05-19T08:43:22.168Z,73.70
2023-05-19T08:45:50.126Z,74.40
2023-05-19T08:48:19.505Z,69.40
2023-05-19T08:50:57.343Z,69.60
2023-05-19T08:53:34.100Z,67.60
2023-05-19T08:56:11.359Z,61.00
2023-05-19T08:58:44.231Z,61.70
2023-05-19T09:01:17.217Z,61.30
2023-05-19T09:03:49.915Z,59.80
2023-05-19T09:06:20.462Z,57.90
2023-05-19T09:08:48.418Z,56.40
2023-05-19T09:11:16.223Z,62.70
2023-05-19T09:13:44.817Z,62.80
2023-05-19T09:16:13.106Z,66.30
2023-05-19T09:18:43.417Z,72.00
2023-05-19T09:21:12.062Z,66.30
2023-05-19T09:23:39.998Z,66.50
2023-05-19T09:26:08.267Z,67.80
2023-05-19T09:28:38.090Z,67.10
2023-05-19T09:31:08.725Z,65.10
2023-05-19T09:33:38.041Z,62.20
2023-05-19T09:36:08.768Z,63.90
2023-05-19T09:38:39.998Z,66.90
2023-05-19T09:41:12.457Z,69.50
2023-05-19T09:43:40.152Z,70.30
2023-05-19T09:46:12.000Z,66.50
2023-05-19T09:48:43.898Z,70.30
2023-05-19T09:51:12.463Z,69.40
2023-05-19T09:53:40.055Z,68.10
2023-05-19T09:56:09.935Z,62.30
2023-05-19T09:58:39.225Z,61.90
2023-05-19T10:01:07.771Z,68.50
2023-05-19T10:03:36.901Z,65.40
2023-05-19T10:06:05.515Z,65.80
2023-05-19T10:08:34.416Z,66.60
2023-05-19T10:11:02.506Z,68.30
2023-05-19T10:13:31.027Z,65.30
2023-05-19T10:15:59.902Z,68.10
2023-05-19T10:18:29.810Z,65.60
2023-05-19T10:20:59.202Z,66.40
2023-05-19T10:23:27.077Z,68.70
2023-05-19T10:25:57.676Z,69.70
2023-05-19T10:28:37.001Z,68.10
2023-05-19T10:31:11.614Z,68.20
2023-05-19T10:33:49.063Z,68.50
2023-05-19T10:36:46.092Z,66.00
2023-05-19T10:39:24.203Z,70.70
2023-05-19T10:42:04.339Z,70.30
2023-05-19T10:45:30.333Z,72.90
2023-05-19T10:47:57.967Z,66.90
2023-05-19T10:50:26.259Z,68.50
2023-05-19T10:52:56.100Z,70.60
2023-05-19T10:55:58.501Z,69.70
2023-05-19T10:59:04.233Z,66.90
2023-05-19T11:01:41.796Z,67.40
2023-05-19T11:04:14.996Z,67.90
2023-05-19T11:06:51.727Z,70.70
2023-05-19T11:09:22.477Z,68.20
2023-05-19T11:12:04.124Z,66.20
2023-05-19T11:14:32.865Z,71.80
2023-05-19T11:17:01.522Z,70.50
2023-05-19T11:19:31.503Z,70.80
2023-05-19T11:22:12.900Z,69.90
2023-05-19T11:24:52.464Z,70.90
2023-05-19T11:27:31.812Z,73.80
2023-05-19T11:30:14.551Z,72.50
2023-05-19T11:32:42.992Z,71.60
2023-05-19T11:35:11.239Z,65.70
2023-05-19T11:37:40.783Z,68.30
2023-05-19T11:40:09.370Z,67.10
2023-05-19T11:42:37.346Z,69.30
2023-05-19T11:45:08.791Z,68.40
2023-05-19T11:47:50.786Z,72.30
2023-05-19T11:50:25.058Z,71.60
2023-05-19T11:52:53.494Z,71.30
2023-05-19T11:55:25.015Z,73.90
2023-05-19T11:58:04.648Z,69.40
2023-05-19T12:00:39.560Z,70.40
2023-05-19T12:03:10.990Z,70.90
2023-05-19T12:05:43.855Z,72.80
2023-05-19T12:08:12.524Z,70.10
2023-05-19T12:10:40.679Z,70.70
2023-05-19T12:13:11.858Z,70.60
2023-05-19T12:15:39.735Z,72.10
2023-05-19T12:18:07.824Z,73.20
2023-05-19T12:20:36.533Z,70.00
2023-05-19T12:23:05.243Z,73.60
2023-05-19T12:25:33.132Z,71.10
2023-05-19T12:28:07.578Z,70.60
2023-05-19T12:30:35.582Z,75.70
2023-05-19T12:33:03.689Z,73.30
2023-05-19T12:35:34.147Z,72.70
2023-05-19T12:38:06.816Z,71.00
2023-05-19T12:40:36.023Z,70.40
2023-05-19T12:43:04.598Z,71.90
2023-05-19T12:45:36.223Z,76.10
2023-05-19T12:48:05.672Z,74.20
2023-05-19T12:50:34.586Z,71.30
2023-05-19T12:53:02.455Z,71.40
2023-05-19T12:55:30.388Z,74.20
2023-05-19T12:57:58.599Z,76.20
2023-05-19T13:00:29.241Z,78.70
2023-05-19T13:03:05.811Z,73.50
2023-05-19T13:05:39.683Z,73.60
2023-05-19T13:08:12.300Z,72.20
2023-05-19T13:10:41.178Z,72.70
2023-05-19T13:13:09.919Z,75.50
2023-05-19T13:15:42.447Z,74.60
2023-05-19T13:18:11.999Z,70.10
2023-05-19T13:20:43.694Z,72.30
2023-05-19T13:23:12.345Z,77.00
2023-05-19T13:25:41.392Z,71.00
2023-05-19T13:28:09.916Z,73.20
2023-05-19T13:30:39.551Z,73.30
2023-05-19T13:33:07.431Z,76.60
2023-05-19T13:35:42.454Z,75.40
2023-05-19T13:38:10.828Z,77.00
2023-05-19T13:40:41.431Z,78.20
2023-05-19T13:43:09.875Z,78.80
2023-05-19T13:45:38.029Z,81.20
2023-05-19T13:48:07.546Z,80.20
2023-05-19T13:50:38.182Z,79.40
2023-05-19T13:53:06.010Z,80.50
2023-05-19T13:55:36.166Z,80.40
2023-05-19T13:58:04.187Z,81.70
2023-05-19T14:00:32.556Z,85.00
2023-05-19T14:03:00.544Z,83.80
2023-05-19T14:05:29.167Z,82.40
2023-05-19T14:07:57.089Z,80.90
2023-05-19T14:10:24.827Z,83.40
2023-05-19T14:13:18.407Z,81.90
2023-05-19T14:15:41.721Z,83.60
2023-05-19T14:18:09.257Z,86.50
2023-05-19T14:20:37.154Z,81.70
2023-05-19T14:23:05.102Z,82.30
2023-05-19T14:25:33.000Z,82.60
2023-05-19T14:28:03.783Z,79.60
2023-05-19T14:30:31.312Z,78.80
2023-05-19T14:32:58.909Z,79.30
2023-05-19T14:35:26.890Z,78.70
2023-05-19T14:37:54.405Z,79.30
2023-05-19T14:40:22.203Z,80.70
2023-05-19T14:42:49.621Z,77.90
2023-05-19T14:45:17.181Z,79.20
2023-05-19T14:47:44.674Z,74.30
2023-05-19T14:50:12.380Z,76.20
2023-05-19T14:52:39.970Z,77.50
2023-05-19T14:55:08.174Z,78.60
2023-05-19T14:57:35.967Z,79.90
2023-05-19T15:00:04.008Z,78.20
2023-05-19T15:02:31.567Z,81.10
2023-05-19T15:05:01.307Z,81.70
2023-05-19T15:07:28.826Z,83.50
2023-05-19T15:09:56.299Z,84.60
2023-05-19T15:12:24.080Z,84.80
2023-05-19T15:14:53.934Z,87.90
2023-05-19T15:17:21.587Z,85.90
2023-05-19T15:19:49.151Z,87.20
2023-05-19T15:22:16.789Z,90.10
2023-05-19T15:24:44.468Z,90.50
2023-05-19T15:27:12.077Z,88.20
2023-05-19T15:29:39.584Z,87.70
2023-05-19T15:32:08.132Z,90.20
2023-05-19T15:34:35.859Z,87.00
2023-05-19T15:37:03.462Z,88.10
2023-05-19T15:39:35.151Z,89.70
2023-05-19T15:42:02.726Z,88.90
2023-05-19T15:44:30.251Z,89.70
2023-05-19T15:46:57.760Z,89.50
2023-05-19T15:49:27.547Z,89.60
2023-05-19T15:51:55.658Z,90.50
2023-05-19T15:54:23.421Z,87.40
2023-05-19T15:56:54.082Z,88.10
2023-05-19T15:59:21.609Z,90.30
2023-05-19T16:01:50.578Z,90.40
2023-05-19T16:04:20.233Z,91.60
2023-05-19T16:06:47.786Z,90.90
2023-05-19T16:09:15.330Z,91.90
2023-05-19T16:11:42.914Z,93.20
2023-05-19T16:14:10.426Z,91.60
2023-05-19T16:16:37.949Z,92.10
2023-05-19T16:19:05.875Z,91.80
2023-05-19T16:21:33.436Z,91.90
2023-05-19T16:24:01.424Z,92.50
2023-05-19T16:26:29.094Z,92.20
2023-05-19T16:28:56.632Z,92.70
2023-05-19T16:31:24.549Z,92.90
2023-05-19T16:33:52.114Z,93.50
2023-05-19T16:36:22.107Z,94.50
2023-05-19T16:38:53.577Z,92.80
2023-05-19T16:41:21.832Z,93.80
2023-05-19T16:43:49.415Z,93.50
2023-05-19T16:46:16.937Z,94.30
2023-05-19T16:48:46.840Z,94.70
2023-05-19T16:51:14.392Z,95.10
2023-05-19T16:53:41.964Z,95.30
2023-05-19T16:56:09.417Z,95.40
2023-05-19T16:58:37.092Z,96.10
2023-05-19T17:01:04.893Z,95.60
2023-05-19T17:03:32.512Z,96.50
2023-05-19T17:06:00.962Z,96.60
2023-05-19T17:08:28.454Z,96.20
2023-05-19T17:10:56.028Z,96.10
2023-05-19T17:13:23.616Z,97.10
2023-05-19T17:15:52.839Z,96.70
2023-05-19T17:18:20.465Z,97.00
2023-05-19T17:20:48.052Z,97.10
2023-05-19T17:23:15.521Z,97.60
2023-05-19T17:25:43.110Z,97.00
2023-05-19T17:28:10.937Z,97.50
2023-05-19T17:30:40.199Z,97.30
2023-05-19T17:33:07.964Z,97.30
2023-05-19T17:35:35.523Z,97.70
2023-05-19T17:38:06.324Z,98.10
2023-05-19T17:40:34.695Z,98.30
2023-05-19T17:43:02.472Z,98.60
2023-05-19T17:45:30.397Z,98.10
2023-05-19T17:47:58.145Z,98.60
2023-05-19T17:50:25.696Z,99.00
2023-05-19T17:52:54.754Z,99.20
2023-05-19T17:55:30.051Z,99.10
2023-05-19T17:57:58.076Z,99.70
2023-05-19T18:00:26.287Z,99.70
2023-05-19T18:02:54.397Z,99.30
2023-05-19T18:05:22.487Z,99.20
2023-05-19T18:07:50.316Z,99.50
2023-05-19T18:10:18.267Z,99.90
2023-05-19T18:12:45.820Z,99.90
2023-05-19T18:15:15.742Z,99.90
2023-05-19T18:17:43.231Z,99.90
2023-05-19T18:20:12.050Z,99.90
2023-05-19T18:22:39.643Z,99.90
2023-05-19T18:25:07.690Z,99.90
2023-05-19T18:27:35.241Z,99.90
2023-05-19T18:30:02.795Z,99.90
2023-05-19T18:32:33.507Z,99.90
2023-05-19T18:35:01.102Z,99.90
2023-05-19T18:37:28.828Z,99.90
2023-05-19T18:39:56.442Z,99.90
2023-05-19T18:42:24.155Z,99.90
2023-05-19T18:44:51.848Z,99.90
2023-05-19T18:47:19.966Z,99.90
2023-05-19T18:49:47.569Z,99.90
2023-05-19T18:52:15.268Z,99.90
2023-05-19T18:54:43.030Z,99.90
2023-05-19T18:57:11.190Z,99.90
2023-05-19T18:59:38.866Z,99.90
2023-05-19T19:02:06.819Z,99.90
2023-05-19T19:04:34.290Z,99.90
2023-05-19T19:07:01.950Z,99.90
2023-05-19T19:09:29.468Z,99.90
2023-05-19T19:11:57.066Z,99.90
2023-05-19T19:14:24.630Z,99.90
2023-05-19T19:16:58.172Z,99.90
2023-05-19T19:19:28.583Z,99.90
2023-05-19T19:21:56.340Z,99.90
2023-05-19T19:24:24.166Z,99.90
2023-05-19T19:26:51.701Z,99.90
2023-05-19T19:29:21.955Z,99.90
2023-05-19T19:31:49.804Z,99.90
2023-05-19T19:34:19.946Z,99.90
2023-05-19T19:36:48.095Z,99.90
2023-05-19T19:39:15.666Z,99.90
2023-05-19T19:41:43.549Z,99.90
2023-05-19T19:44:13.347Z,99.90
2023-05-19T19:46:41.276Z,99.90
2023-05-19T19:49:08.891Z,99.90
2023-05-19T19:51:36.411Z,99.90
2023-05-19T19:54:04.011Z,99.90
2023-05-19T19:56:31.510Z,99.90
2023-05-19T19:58:59.463Z,99.90
2023-05-19T20:01:27.953Z,99.90
2023-05-19T20:03:56.919Z,99.90
2023-05-19T20:06:24.809Z,99.90
2023-05-19T20:08:52.456Z,99.90
2023-05-19T20:11:22.908Z,99.90
2023-05-19T20:13:50.708Z,99.90
2023-05-19T20:16:18.322Z,99.90
2023-05-19T20:18:46.095Z,99.90
2023-05-19T20:21:13.676Z,99.90
2023-05-19T20:23:41.895Z,99.90
2023-05-19T20:26:13.133Z,99.90
2023-05-19T20:28:43.678Z,99.90
2023-05-19T20:31:11.441Z,99.90
2023-05-19T20:33:39.163Z,99.90
2023-05-19T20:36:07.676Z,99.90
2023-05-19T20:38:35.359Z,99.90
2023-05-19T20:41:04.176Z,99.90
2023-05-19T20:43:34.792Z,99.90
2023-05-19T20:46:03.911Z,99.90
2023-05-19T20:48:34.425Z,99.90
2023-05-19T20:51:02.070Z,99.90
2023-05-19T20:53:29.529Z,99.90
2023-05-19T20:55:57.071Z,99.90
2023-05-19T20:58:26.877Z,99.90
2023-05-19T21:00:58.163Z,99.90
2023-05-19T21:03:27.224Z,99.90
2023-05-19T21:05:55.712Z,99.90
2023-05-19T21:08:26.243Z,99.90
2023-05-19T21:10:56.524Z,99.90
2023-05-19T21:13:23.991Z,99.90
2023-05-19T21:15:51.495Z,99.90
2023-05-19T21:18:19.010Z,99.90
2023-05-19T21:20:46.731Z,99.90
2023-05-19T21:23:14.579Z,99.90
2023-05-19T21:25:44.558Z,99.90
2023-05-19T21:28:12.860Z,99.90
2023-05-19T21:30:40.526Z,99.90
2023-05-19T21:33:08.128Z,99.90
2023-05-19T21:35:36.981Z,99.90
2023-05-19T21:38:15.718Z,99.90
2023-05-19T21:40:50.685Z,99.90
2023-05-19T21:43:18.202Z,99.90
2023-05-19T21:45:46.056Z,99.90
2023-05-19T21:48:13.970Z,99.90
2023-05-19T21:50:41.464Z,99.90
2023-05-19T21:53:09.157Z,99.90
2023-05-19T21:55:39.465Z,99.90
2023-05-19T21:58:09.788Z,99.90
2023-05-19T22:00:38.372Z,99.90
2023-05-19T22:03:06.766Z,99.90
2023-05-19T22:05:35.481Z,99.90
2023-05-19T22:08:03.720Z,99.90
2023-05-19T22:10:33.347Z,99.90
2023-05-19T22:13:01.460Z,99.90
2023-05-19T22:15:28.989Z,99.90
2023-05-19T22:17:56.709Z,99.90
2023-05-19T22:20:24.749Z,99.90
2023-05-19T22:22:53.173Z,99.90
2023-05-19T22:25:20.851Z,99.90
2023-05-19T22:27:48.375Z,99.90
2023-05-19T22:30:16.413Z,99.90
2023-05-19T22:32:46.331Z,99.90
2023-05-19T22:35:13.922Z,99.90
2023-05-19T22:37:41.400Z,99.90
2023-05-19T22:40:09.359Z,99.90
2023-05-19T22:42:36.923Z,99.90
2023-05-19T22:45:05.601Z,99.90
2023-05-19T22:47:33.146Z,99.90
2023-05-19T22:50:00.718Z,99.90
2023-05-19T22:52:28.444Z,99.90
2023-05-19T22:54:56.148Z,99.90
2023-05-19T22:57:23.757Z,99.90
2023-05-19T22:59:51.193Z,99.90
2023-05-19T23:02:19.862Z,99.90
2023-05-19T23:04:47.373Z,99.90
2023-05-19T23:07:14.953Z,99.90
2023-05-19T23:09:42.450Z,99.90
2023-05-19T23:12:09.880Z,99.90
2023-05-19T23:14:37.320Z,99.90
2023-05-19T23:17:05.228Z,99.90
2023-05-19T23:19:35.133Z,99.90
2023-05-19T23:22:02.672Z,99.90
2023-05-19T23:24:30.178Z,99.90
2023-05-19T23:26:57.702Z,99.90
2023-05-19T23:29:25.397Z,99.90
2023-05-19T23:31:52.851Z,99.90
2023-05-19T23:34:20.740Z,99.90
2023-05-19T23:36:48.256Z,99.90
2023-05-19T23:39:15.962Z,99.90
2023-05-19T23:41:43.528Z,99.90
2023-05-19T23:44:12.159Z,99.90
2023-05-19T23:46:39.675Z,99.90
2023-05-19T23:49:07.174Z,99.90
2023-05-19T23:51:34.707Z,99.90
2023-05-19T23:54:03.414Z,99.90
2023-05-19T23:56:30.896Z,99.90
2023-05-19T23:58:58.477Z,99.90
